sensor_id;sensor_type;location;lat;lon;timestamp;pressure;altitude;pressure_sealevel;temperature;humidity
56038;BME280;41907;47.848;9.000;2022-09-12T00:01:24;95896.34;;;11.52;100.00
56038;BME280;41907;47.848;9.000;2022-09-12T00:03:55;95900.97;;;11.61;100.00
56038;BME280;41907;47.848;9.000;2022-09-12T00:06:25;95899.38;;;11.60;100.00
56038;BME280;41907;47.848;9.000;2022-09-12T00:08:54;95896.03;;;11.54;100.00
56038;BME280;41907;47.848;9.000;2022-09-12T00:11:20;95895.63;;;11.61;100.00
56038;BME280;41907;47.848;9.000;2022-09-12T00:13:45;95900.16;;;11.60;100.00
56038;BME280;41907;47.848;9.000;2022-09-12T00:16:21;95895.94;;;11.68;100.00
56038;BME280;41907;47.848;9.000;2022-09-12T00:18:47;95907.41;;;11.68;100.00
56038;BME280;41907;47.848;9.000;2022-09-12T00:21:14;95896.56;;;11.65;100.00
56038;BME280;41907;47.848;9.000;2022-09-12T00:23:40;95897.13;;;11.53;100.00
56038;BME280;41907;47.848;9.000;2022-09-12T00:26:06;95901.09;;;11.55;100.00
56038;BME280;41907;47.848;9.000;2022-09-12T00:28:33;95894.03;;;11.60;100.00
56038;BME280;41907;47.848;9.000;2022-09-12T00:30:59;95897.94;;;11.62;100.00
56038;BME280;41907;47.848;9.000;2022-09-12T00:33:24;95897.44;;;11.51;100.00
56038;BME280;41907;47.848;9.000;2022-09-12T00:35:50;95891.16;;;11.47;100.00
56038;BME280;41907;47.848;9.000;2022-09-12T00:38:19;95883.28;;;11.42;100.00
56038;BME280;41907;47.848;9.000;2022-09-12T00:40:45;95889.59;;;11.46;100.00
56038;BME280;41907;47.848;9.000;2022-09-12T00:43:13;95894.44;;;11.44;100.00
56038;BME280;41907;47.848;9.000;2022-09-12T00:45:40;95890.69;;;11.45;100.00
56038;BME280;41907;47.848;9.000;2022-09-12T00:48:17;95895.69;;;11.38;100.00
56038;BME280;41907;47.848;9.000;2022-09-12T00:50:47;95890.34;;;11.38;100.00
56038;BME280;41907;47.848;9.000;2022-09-12T00:53:12;95884.19;;;11.29;100.00
56038;BME280;41907;47.848;9.000;2022-09-12T00:55:40;95881.63;;;11.24;100.00
56038;BME280;41907;47.848;9.000;2022-09-12T00:58:14;95878.50;;;11.22;100.00
56038;BME280;41907;47.848;9.000;2022-09-12T01:00:41;95879.09;;;11.19;100.00
56038;BME280;41907;47.848;9.000;2022-09-12T01:03:10;95875.75;;;11.13;100.00
56038;BME280;41907;47.848;9.000;2022-09-12T01:05:40;95875.16;;;11.16;100.00
56038;BME280;41907;47.848;9.000;2022-09-12T01:08:09;95867.91;;;11.08;100.00
56038;BME280;41907;47.848;9.000;2022-09-12T01:10:36;95868.03;;;11.03;100.00
56038;BME280;41907;47.848;9.000;2022-09-12T01:13:05;95863.97;;;11.06;100.00
56038;BME280;41907;47.848;9.000;2022-09-12T01:15:31;95868.50;;;11.05;100.00
56038;BME280;41907;47.848;9.000;2022-09-12T01:18:59;95862.28;;;10.88;100.00
56038;BME280;41907;47.848;9.000;2022-09-12T01:27:11;95852.44;;;10.97;100.00
56038;BME280;41907;47.848;9.000;2022-09-12T01:38:09;95851.75;;;10.82;100.00
56038;BME280;41907;47.848;9.000;2022-09-12T01:43:48;95856.59;;;10.80;100.00
56038;BME280;41907;47.848;9.000;2022-09-12T01:46:40;95851.88;;;10.77;100.00
56038;BME280;41907;47.848;9.000;2022-09-12T01:49:24;95847.31;;;10.78;100.00
56038;BME280;41907;47.848;9.000;2022-09-12T01:51:55;95856.13;;;10.78;100.00
56038;BME280;41907;47.848;9.000;2022-09-12T01:54:53;95842.13;;;10.73;100.00
56038;BME280;41907;47.848;9.000;2022-09-12T01:57:28;95838.00;;;10.67;100.00
56038;BME280;41907;47.848;9.000;2022-09-12T02:00:00;95842.69;;;10.61;100.00
56038;BME280;41907;47.848;9.000;2022-09-12T02:02:38;95841.09;;;10.60;100.00
56038;BME280;41907;47.848;9.000;2022-09-12T02:05:09;95832.00;;;10.61;100.00
56038;BME280;41907;47.848;9.000;2022-09-12T02:07:39;95834.19;;;10.59;100.00
56038;BME280;41907;47.848;9.000;2022-09-12T02:10:17;95813.78;;;10.55;100.00
56038;BME280;41907;47.848;9.000;2022-09-12T02:12:55;95824.50;;;10.63;100.00
56038;BME280;41907;47.848;9.000;2022-09-12T02:15:33;95821.22;;;10.66;100.00
56038;BME280;41907;47.848;9.000;2022-09-12T02:18:03;95814.00;;;10.67;100.00
56038;BME280;41907;47.848;9.000;2022-09-12T02:20:35;95819.03;;;10.68;100.00
56038;BME280;41907;47.848;9.000;2022-09-12T02:23:05;95804.44;;;10.66;100.00
56038;BME280;41907;47.848;9.000;2022-09-12T02:25:37;95805.19;;;10.66;100.00
56038;BME280;41907;47.848;9.000;2022-09-12T02:28:08;95808.53;;;10.72;100.00
56038;BME280;41907;47.848;9.000;2022-09-12T02:30:45;95801.97;;;10.78;100.00
56038;BME280;41907;47.848;9.000;2022-09-12T02:33:22;95801.03;;;10.74;100.00
56038;BME280;41907;47.848;9.000;2022-09-12T02:35:56;95798.66;;;10.72;100.00
56038;BME280;41907;47.848;9.000;2022-09-12T02:38:27;95804.25;;;10.62;100.00
56038;BME280;41907;47.848;9.000;2022-09-12T02:40:54;95797.03;;;10.63;100.00
56038;BME280;41907;47.848;9.000;2022-09-12T02:43:20;95793.41;;;10.59;100.00
56038;BME280;41907;47.848;9.000;2022-09-12T02:45:45;95796.84;;;10.59;100.00
56038;BME280;41907;47.848;9.000;2022-09-12T02:48:15;95805.94;;;10.58;100.00
56038;BME280;41907;47.848;9.000;2022-09-12T02:50:43;95794.50;;;10.58;100.00
56038;BME280;41907;47.848;9.000;2022-09-12T02:53:09;95797.50;;;10.56;100.00
56038;BME280;41907;47.848;9.000;2022-09-12T02:55:36;95802.97;;;10.60;100.00
56038;BME280;41907;47.848;9.000;2022-09-12T02:58:05;95791.41;;;10.64;100.00
56038;BME280;41907;47.848;9.000;2022-09-12T03:00:38;95794.72;;;10.70;100.00
56038;BME280;41907;47.848;9.000;2022-09-12T03:03:28;95796.78;;;10.73;100.00
56038;BME280;41907;47.848;9.000;2022-09-12T03:06:04;95792.25;;;10.73;100.00
56038;BME280;41907;47.848;9.000;2022-09-12T03:08:52;95793.47;;;10.76;100.00
56038;BME280;41907;47.848;9.000;2022-09-12T03:14:05;95797.16;;;10.58;100.00
56038;BME280;41907;47.848;9.000;2022-09-12T03:19:31;95803.31;;;10.36;100.00
56038;BME280;41907;47.848;9.000;2022-09-12T03:25:48;95798.03;;;10.44;100.00
56038;BME280;41907;47.848;9.000;2022-09-12T03:27:47;95797.50;;;10.34;100.00
56038;BME280;41907;47.848;9.000;2022-09-12T03:30:16;95807.19;;;10.30;100.00
56038;BME280;41907;47.848;9.000;2022-09-12T03:32:46;95808.94;;;10.34;100.00
56038;BME280;41907;47.848;9.000;2022-09-12T03:35:12;95798.34;;;10.21;100.00
56038;BME280;41907;47.848;9.000;2022-09-12T03:37:38;95810.94;;;10.29;100.00
56038;BME280;41907;47.848;9.000;2022-09-12T03:40:04;95812.44;;;10.21;100.00
56038;BME280;41907;47.848;9.000;2022-09-12T03:42:30;95807.75;;;10.18;100.00
56038;BME280;41907;47.848;9.000;2022-09-12T03:44:55;95810.41;;;10.18;100.00
56038;BME280;41907;47.848;9.000;2022-09-12T03:47:21;95811.25;;;10.27;100.00
56038;BME280;41907;47.848;9.000;2022-09-12T03:49:46;95810.63;;;10.30;100.00
56038;BME280;41907;47.848;9.000;2022-09-12T03:52:12;95809.28;;;10.19;100.00
56038;BME280;41907;47.848;9.000;2022-09-12T03:54:37;95801.88;;;10.16;100.00
56038;BME280;41907;47.848;9.000;2022-09-12T03:57:03;95794.78;;;10.12;100.00
56038;BME280;41907;47.848;9.000;2022-09-12T03:59:29;95791.34;;;10.11;100.00
56038;BME280;41907;47.848;9.000;2022-09-12T04:01:54;95800.41;;;10.10;100.00
56038;BME280;41907;47.848;9.000;2022-09-12T04:04:19;95801.34;;;10.05;100.00
56038;BME280;41907;47.848;9.000;2022-09-12T04:06:45;95804.78;;;10.06;100.00
56038;BME280;41907;47.848;9.000;2022-09-12T04:09:10;95808.41;;;10.10;100.00
56038;BME280;41907;47.848;9.000;2022-09-12T04:11:35;95806.38;;;10.07;100.00
56038;BME280;41907;47.848;9.000;2022-09-12T04:14:01;95808.84;;;10.03;100.00
56038;BME280;41907;47.848;9.000;2022-09-12T04:16:26;95800.84;;;10.03;100.00
56038;BME280;41907;47.848;9.000;2022-09-12T04:18:53;95806.66;;;10.05;100.00
56038;BME280;41907;47.848;9.000;2022-09-12T04:21:19;95806.97;;;10.04;100.00
56038;BME280;41907;47.848;9.000;2022-09-12T04:23:45;95808.34;;;10.01;100.00
56038;BME280;41907;47.848;9.000;2022-09-12T04:26:11;95817.47;;;9.87;100.00
56038;BME280;41907;47.848;9.000;2022-09-12T04:28:38;95807.94;;;9.72;100.00
56038;BME280;41907;47.848;9.000;2022-09-12T04:31:06;95811.94;;;9.61;100.00
56038;BME280;41907;47.848;9.000;2022-09-12T04:33:35;95806.69;;;9.56;100.00
56038;BME280;41907;47.848;9.000;2022-09-12T04:36:10;95812.81;;;9.56;100.00
56038;BME280;41907;47.848;9.000;2022-09-12T04:38:36;95809.78;;;9.49;100.00
56038;BME280;41907;47.848;9.000;2022-09-12T04:41:16;95815.50;;;9.43;100.00
56038;BME280;41907;47.848;9.000;2022-09-12T04:43:42;95811.97;;;9.33;100.00
56038;BME280;41907;47.848;9.000;2022-09-12T04:46:11;95808.31;;;9.29;100.00
56038;BME280;41907;47.848;9.000;2022-09-12T04:48:37;95808.97;;;9.35;100.00
56038;BME280;41907;47.848;9.000;2022-09-12T04:51:14;95814.22;;;9.40;100.00
56038;BME280;41907;47.848;9.000;2022-09-12T04:53:41;95814.50;;;9.52;100.00
56038;BME280;41907;47.848;9.000;2022-09-12T04:56:08;95813.19;;;9.63;100.00
56038;BME280;41907;47.848;9.000;2022-09-12T04:58:34;95814.97;;;9.54;100.00
56038;BME280;41907;47.848;9.000;2022-09-12T05:01:08;95813.38;;;9.53;100.00
56038;BME280;41907;47.848;9.000;2022-09-12T05:03:34;95812.44;;;9.49;100.00
56038;BME280;41907;47.848;9.000;2022-09-12T05:06:02;95818.53;;;9.50;100.00
56038;BME280;41907;47.848;9.000;2022-09-12T05:08:28;95825.16;;;9.52;100.00
56038;BME280;41907;47.848;9.000;2022-09-12T05:10:53;95825.81;;;9.58;100.00
56038;BME280;41907;47.848;9.000;2022-09-12T05:13:19;95830.81;;;9.73;100.00
56038;BME280;41907;47.848;9.000;2022-09-12T05:15:53;95827.34;;;9.86;100.00
56038;BME280;41907;47.848;9.000;2022-09-12T05:18:18;95824.47;;;9.96;100.00
56038;BME280;41907;47.848;9.000;2022-09-12T05:20:44;95812.72;;;9.97;100.00
56038;BME280;41907;47.848;9.000;2022-09-12T05:23:09;95817.69;;;10.13;100.00
56038;BME280;41907;47.848;9.000;2022-09-12T05:25:34;95814.09;;;10.31;100.00
56038;BME280;41907;47.848;9.000;2022-09-12T05:28:00;95814.63;;;10.41;100.00
56038;BME280;41907;47.848;9.000;2022-09-12T05:30:25;95812.66;;;10.47;100.00
56038;BME280;41907;47.848;9.000;2022-09-12T05:32:50;95820.03;;;10.50;100.00
56038;BME280;41907;47.848;9.000;2022-09-12T05:35:16;95816.94;;;10.57;100.00
56038;BME280;41907;47.848;9.000;2022-09-12T05:37:42;95817.94;;;10.69;100.00
56038;BME280;41907;47.848;9.000;2022-09-12T05:40:08;95809.88;;;10.83;100.00
56038;BME280;41907;47.848;9.000;2022-09-12T05:42:33;95819.53;;;11.01;100.00
56038;BME280;41907;47.848;9.000;2022-09-12T05:44:59;95812.63;;;11.09;100.00
56038;BME280;41907;47.848;9.000;2022-09-12T05:47:24;95819.09;;;11.16;100.00
56038;BME280;41907;47.848;9.000;2022-09-12T05:49:49;95819.97;;;11.43;100.00
56038;BME280;41907;47.848;9.000;2022-09-12T05:52:16;95817.44;;;11.95;100.00
56038;BME280;41907;47.848;9.000;2022-09-12T05:54:42;95809.16;;;13.62;100.00
56038;BME280;41907;47.848;9.000;2022-09-12T05:57:07;95819.06;;;14.11;100.00
56038;BME280;41907;47.848;9.000;2022-09-12T05:59:33;95820.03;;;14.48;98.25
56038;BME280;41907;47.848;9.000;2022-09-12T06:01:58;95823.34;;;16.09;90.29
56038;BME280;41907;47.848;9.000;2022-09-12T06:04:24;95819.16;;;18.05;78.78
56038;BME280;41907;47.848;9.000;2022-09-12T06:06:50;95829.00;;;19.55;70.91
56038;BME280;41907;47.848;9.000;2022-09-12T06:09:16;95833.09;;;20.84;64.01
56038;BME280;41907;47.848;9.000;2022-09-12T06:11:43;95830.06;;;21.23;61.66
56038;BME280;41907;47.848;9.000;2022-09-12T06:14:13;95836.09;;;21.49;60.52
56038;BME280;41907;47.848;9.000;2022-09-12T06:16:39;95842.97;;;21.84;59.24
56038;BME280;41907;47.848;9.000;2022-09-12T06:19:16;95834.34;;;22.26;57.41
56038;BME280;41907;47.848;9.000;2022-09-12T06:21:42;95847.91;;;23.16;54.83
56038;BME280;41907;47.848;9.000;2022-09-12T06:24:08;95842.94;;;23.54;52.54
56038;BME280;41907;47.848;9.000;2022-09-12T06:26:33;95845.66;;;23.79;51.07
56038;BME280;41907;47.848;9.000;2022-09-12T06:28:59;95846.03;;;24.09;50.07
56038;BME280;41907;47.848;9.000;2022-09-12T06:31:30;95846.81;;;24.34;49.04
56038;BME280;41907;47.848;9.000;2022-09-12T06:33:59;95845.09;;;24.76;47.72
56038;BME280;41907;47.848;9.000;2022-09-12T06:36:33;95849.97;;;25.20;45.90
56038;BME280;41907;47.848;9.000;2022-09-12T06:39:06;95847.22;;;25.82;43.21
56038;BME280;41907;47.848;9.000;2022-09-12T06:41:32;95855.13;;;26.14;43.17
56038;BME280;41907;47.848;9.000;2022-09-12T06:43:58;95847.22;;;26.23;42.52
56038;BME280;41907;47.848;9.000;2022-09-12T06:46:24;95848.25;;;26.78;42.05
56038;BME280;41907;47.848;9.000;2022-09-12T06:48:49;95847.84;;;27.10;40.68
56038;BME280;41907;47.848;9.000;2022-09-12T06:51:16;95849.75;;;27.13;40.81
56038;BME280;41907;47.848;9.000;2022-09-12T06:53:42;95848.19;;;27.69;39.55
56038;BME280;41907;47.848;9.000;2022-09-12T06:56:16;95851.28;;;27.71;39.12
56038;BME280;41907;47.848;9.000;2022-09-12T06:58:43;95848.38;;;27.82;40.05
56038;BME280;41907;47.848;9.000;2022-09-12T07:01:13;95846.91;;;28.24;39.23
56038;BME280;41907;47.848;9.000;2022-09-12T07:03:39;95845.56;;;27.85;39.45
56038;BME280;41907;47.848;9.000;2022-09-12T07:06:10;95855.75;;;27.85;39.33
56038;BME280;41907;47.848;9.000;2022-09-12T07:08:36;95841.94;;;27.68;39.52
56038;BME280;41907;47.848;9.000;2022-09-12T07:13:33;95852.59;;;28.33;38.72
56038;BME280;41907;47.848;9.000;2022-09-12T07:16:05;95845.69;;;28.48;37.52
56038;BME280;41907;47.848;9.000;2022-09-12T07:18:32;95848.56;;;27.71;40.61
56038;BME280;41907;47.848;9.000;2022-09-12T07:21:01;95855.22;;;28.83;37.92
56038;BME280;41907;47.848;9.000;2022-09-12T07:23:28;95857.06;;;28.46;38.29
56038;BME280;41907;47.848;9.000;2022-09-12T07:25:55;95857.97;;;27.93;39.42
56038;BME280;41907;47.848;9.000;2022-09-12T07:28:31;95866.31;;;28.09;39.68
56038;BME280;41907;47.848;9.000;2022-09-12T07:30:57;95856.75;;;28.21;39.26
56038;BME280;41907;47.848;9.000;2022-09-12T07:33:28;95857.91;;;28.43;38.22
56038;BME280;41907;47.848;9.000;2022-09-12T07:35:53;95855.81;;;28.71;36.74
56038;BME280;41907;47.848;9.000;2022-09-12T07:38:20;95851.22;;;28.88;38.15
56038;BME280;41907;47.848;9.000;2022-09-12T07:40:45;95853.88;;;29.27;36.48
56038;BME280;41907;47.848;9.000;2022-09-12T07:43:11;95850.69;;;29.48;35.35
56038;BME280;41907;47.848;9.000;2022-09-12T07:45:37;95853.09;;;28.91;35.30
56038;BME280;41907;47.848;9.000;2022-09-12T07:48:06;95848.84;;;27.76;37.55
56038;BME280;41907;47.848;9.000;2022-09-12T07:50:31;95852.56;;;28.36;37.86
56038;BME280;41907;47.848;9.000;2022-09-12T07:52:57;95851.56;;;28.27;36.66
56038;BME280;41907;47.848;9.000;2022-09-12T07:55:23;95847.16;;;28.72;36.81
56038;BME280;41907;47.848;9.000;2022-09-12T07:57:50;95845.63;;;29.47;37.54
56038;BME280;41907;47.848;9.000;2022-09-12T08:00:15;95845.66;;;29.79;35.37
56038;BME280;41907;47.848;9.000;2022-09-12T08:02:41;95837.16;;;29.90;36.12
56038;BME280;41907;47.848;9.000;2022-09-12T08:05:07;95842.28;;;29.55;35.52
56038;BME280;41907;47.848;9.000;2022-09-12T08:07:33;95843.13;;;29.16;35.05
56038;BME280;41907;47.848;9.000;2022-09-12T08:09:58;95841.16;;;29.17;35.28
56038;BME280;41907;47.848;9.000;2022-09-12T08:12:26;95844.00;;;28.74;36.15
56038;BME280;41907;47.848;9.000;2022-09-12T08:14:52;95847.00;;;27.93;37.81
56038;BME280;41907;47.848;9.000;2022-09-12T08:17:19;95839.91;;;29.02;36.47
56038;BME280;41907;47.848;9.000;2022-09-12T08:19:46;95847.44;;;28.98;36.67
56038;BME280;41907;47.848;9.000;2022-09-12T08:22:12;95835.84;;;29.26;35.55
56038;BME280;41907;47.848;9.000;2022-09-12T08:24:37;95838.59;;;29.26;35.31
56038;BME280;41907;47.848;9.000;2022-09-12T08:27:06;95835.66;;;29.85;33.47
56038;BME280;41907;47.848;9.000;2022-09-12T08:29:32;95837.13;;;29.57;34.92
56038;BME280;41907;47.848;9.000;2022-09-12T08:31:57;95845.38;;;30.39;33.36
56038;BME280;41907;47.848;9.000;2022-09-12T08:34:23;95848.28;;;31.18;32.83
56038;BME280;41907;47.848;9.000;2022-09-12T08:36:49;95844.25;;;31.06;32.29
56038;BME280;41907;47.848;9.000;2022-09-12T08:39:14;95844.94;;;30.69;32.79
56038;BME280;41907;47.848;9.000;2022-09-12T08:41:43;95844.81;;;29.99;33.13
56038;BME280;41907;47.848;9.000;2022-09-12T08:44:29;95848.22;;;30.64;33.04
56038;BME280;41907;47.848;9.000;2022-09-12T08:52:59;95849.97;;;29.96;35.24
56038;BME280;41907;47.848;9.000;2022-09-12T08:55:31;95848.72;;;30.88;35.61
56038;BME280;41907;47.848;9.000;2022-09-12T08:57:59;95845.25;;;30.42;33.25
56038;BME280;41907;47.848;9.000;2022-09-12T09:00:33;95857.22;;;31.22;32.81
56038;BME280;41907;47.848;9.000;2022-09-12T09:11:47;95845.13;;;28.57;36.65
56038;BME280;41907;47.848;9.000;2022-09-12T09:17:01;95842.81;;;27.62;39.48
56038;BME280;41907;47.848;9.000;2022-09-12T09:19:34;95837.03;;;28.49;37.76
56038;BME280;41907;47.848;9.000;2022-09-12T09:22:03;95836.53;;;28.55;37.56
56038;BME280;41907;47.848;9.000;2022-09-12T09:24:50;95839.25;;;28.78;38.40
56038;BME280;41907;47.848;9.000;2022-09-12T09:29:52;95838.16;;;29.11;35.38
56038;BME280;41907;47.848;9.000;2022-09-12T09:32:26;95827.56;;;29.10;37.62
56038;BME280;41907;47.848;9.000;2022-09-12T09:34:52;95829.44;;;29.33;34.51
56038;BME280;41907;47.848;9.000;2022-09-12T09:37:19;95841.63;;;29.32;35.76
56038;BME280;41907;47.848;9.000;2022-09-12T09:40:28;95832.47;;;29.54;35.12
56038;BME280;41907;47.848;9.000;2022-09-12T09:45:22;95823.19;;;28.96;35.60
56038;BME280;41907;47.848;9.000;2022-09-12T09:48:16;95832.06;;;28.41;38.04
56038;BME280;41907;47.848;9.000;2022-09-12T09:50:42;95824.00;;;29.65;36.43
56038;BME280;41907;47.848;9.000;2022-09-12T09:53:28;95821.16;;;29.52;36.28
56038;BME280;41907;47.848;9.000;2022-09-12T09:55:59;95824.22;;;30.64;37.24
56038;BME280;41907;47.848;9.000;2022-09-12T09:58:34;95827.69;;;29.91;38.07
56038;BME280;41907;47.848;9.000;2022-09-12T10:01:04;95823.16;;;30.87;36.13
56038;BME280;41907;47.848;9.000;2022-09-12T10:03:37;95827.34;;;31.59;34.07
56038;BME280;41907;47.848;9.000;2022-09-12T10:08:46;95823.38;;;31.85;35.58
56038;BME280;41907;47.848;9.000;2022-09-12T10:13:50;95814.47;;;31.68;35.39
56038;BME280;41907;47.848;9.000;2022-09-12T10:18:48;95818.03;;;30.60;35.06
56038;BME280;41907;47.848;9.000;2022-09-12T10:21:31;95814.13;;;28.17;38.99
56038;BME280;41907;47.848;9.000;2022-09-12T10:24:15;95818.00;;;28.19;41.75
56038;BME280;41907;47.848;9.000;2022-09-12T10:26:49;95804.72;;;28.97;39.23
56038;BME280;41907;47.848;9.000;2022-09-12T10:29:20;95811.97;;;28.47;41.05
56038;BME280;41907;47.848;9.000;2022-09-12T10:31:50;95801.50;;;28.82;40.48
56038;BME280;41907;47.848;9.000;2022-09-12T10:34:24;95800.25;;;26.70;45.05
56038;BME280;41907;47.848;9.000;2022-09-12T10:36:56;95799.13;;;26.97;44.05
56038;BME280;41907;47.848;9.000;2022-09-12T10:39:23;95799.84;;;27.01;43.30
56038;BME280;41907;47.848;9.000;2022-09-12T10:41:48;95793.53;;;26.74;43.06
56038;BME280;41907;47.848;9.000;2022-09-12T10:44:29;95801.47;;;25.93;45.56
56038;BME280;41907;47.848;9.000;2022-09-12T10:46:56;95799.72;;;26.48;46.09
56038;BME280;41907;47.848;9.000;2022-09-12T10:49:29;95793.78;;;26.53;46.84
56038;BME280;41907;47.848;9.000;2022-09-12T10:51:57;95799.31;;;26.49;44.40
56038;BME280;41907;47.848;9.000;2022-09-12T10:54:40;95799.00;;;25.58;50.53
56038;BME280;41907;47.848;9.000;2022-09-12T10:57:31;95803.22;;;26.11;50.53
56038;BME280;41907;47.848;9.000;2022-09-12T11:05:30;95792.81;;;27.27;47.60
56038;BME280;41907;47.848;9.000;2022-09-12T11:30:16;95782.06;;;24.56;52.57
56038;BME280;41907;47.848;9.000;2022-09-12T11:35:29;95777.34;;;25.33;47.78
56038;BME280;41907;47.848;9.000;2022-09-12T11:41:00;95774.31;;;26.13;48.44
56038;BME280;41907;47.848;9.000;2022-09-12T11:43:39;95769.47;;;26.32;48.12
56038;BME280;41907;47.848;9.000;2022-09-12T11:46:19;95764.09;;;26.17;46.36
56038;BME280;41907;47.848;9.000;2022-09-12T11:51:25;95756.97;;;26.30;48.76
56038;BME280;41907;47.848;9.000;2022-09-12T11:54:33;95763.50;;;26.40;45.83
56038;BME280;41907;47.848;9.000;2022-09-12T12:00:06;95763.78;;;26.80;45.59
56038;BME280;41907;47.848;9.000;2022-09-12T12:02:46;95752.19;;;26.68;45.90
56038;BME280;41907;47.848;9.000;2022-09-12T12:05:19;95755.09;;;26.85;45.67
56038;BME280;41907;47.848;9.000;2022-09-12T12:07:57;95751.78;;;26.02;43.85
56038;BME280;41907;47.848;9.000;2022-09-12T12:10:32;95746.13;;;24.75;46.53
56038;BME280;41907;47.848;9.000;2022-09-12T12:13:04;95746.44;;;24.84;49.22
56038;BME280;41907;47.848;9.000;2022-09-12T12:15:35;95750.13;;;25.23;49.77
56038;BME280;41907;47.848;9.000;2022-09-12T12:18:07;95741.69;;;25.51;47.50
56038;BME280;41907;47.848;9.000;2022-09-12T12:20:39;95736.72;;;25.39;47.95
56038;BME280;41907;47.848;9.000;2022-09-12T12:23:05;95736.53;;;25.19;46.18
56038;BME280;41907;47.848;9.000;2022-09-12T12:25:51;95734.19;;;25.14;50.00
56038;BME280;41907;47.848;9.000;2022-09-12T12:31:09;95722.97;;;25.01;45.97
56038;BME280;41907;47.848;9.000;2022-09-12T12:36:04;95717.38;;;24.60;50.47
56038;BME280;41907;47.848;9.000;2022-09-12T12:38:35;95717.56;;;24.98;51.20
56038;BME280;41907;47.848;9.000;2022-09-12T12:43:53;95719.72;;;24.62;50.51
56038;BME280;41907;47.848;9.000;2022-09-12T12:46:21;95716.81;;;24.03;49.28
56038;BME280;41907;47.848;9.000;2022-09-12T12:49:18;95713.19;;;24.38;53.19
56038;BME280;41907;47.848;9.000;2022-09-12T12:51:54;95709.38;;;24.21;54.51
56038;BME280;41907;47.848;9.000;2022-09-12T12:57:00;95710.31;;;23.65;54.36
56038;BME280;41907;47.848;9.000;2022-09-12T12:59:26;95697.38;;;24.04;54.32
56038;BME280;41907;47.848;9.000;2022-09-12T13:01:53;95699.22;;;24.29;52.12
56038;BME280;41907;47.848;9.000;2022-09-12T13:04:22;95694.63;;;24.04;48.08
56038;BME280;41907;47.848;9.000;2022-09-12T13:07:05;95688.13;;;23.73;50.48
56038;BME280;41907;47.848;9.000;2022-09-12T13:09:43;95694.59;;;24.22;48.34
56038;BME280;41907;47.848;9.000;2022-09-12T13:12:19;95688.84;;;23.92;47.40
56038;BME280;41907;47.848;9.000;2022-09-12T13:17:38;95685.38;;;23.73;45.86
56038;BME280;41907;47.848;9.000;2022-09-12T13:20:06;95686.19;;;23.31;47.21
56038;BME280;41907;47.848;9.000;2022-09-12T13:22:40;95672.56;;;23.70;50.31
56038;BME280;41907;47.848;9.000;2022-09-12T13:25:28;95676.84;;;23.68;50.34
56038;BME280;41907;47.848;9.000;2022-09-12T13:30:32;95674.53;;;23.42;53.19
56038;BME280;41907;47.848;9.000;2022-09-12T13:33:06;95660.53;;;23.50;51.07
56038;BME280;41907;47.848;9.000;2022-09-12T13:35:48;95661.34;;;22.94;52.86
56038;BME280;41907;47.848;9.000;2022-09-12T13:39:00;95663.66;;;23.34;52.79
56038;BME280;41907;47.848;9.000;2022-09-12T13:41:38;95659.34;;;23.62;50.27
56038;BME280;41907;47.848;9.000;2022-09-12T13:44:10;95653.91;;;23.65;53.16
56038;BME280;41907;47.848;9.000;2022-09-12T13:46:38;95655.09;;;23.40;50.11
56038;BME280;41907;47.848;9.000;2022-09-12T13:49:19;95663.66;;;23.02;52.61
56038;BME280;41907;47.848;9.000;2022-09-12T13:51:55;95661.72;;;22.71;52.84
56038;BME280;41907;47.848;9.000;2022-09-12T13:54:22;95664.81;;;22.62;54.54
56038;BME280;41907;47.848;9.000;2022-09-12T13:56:48;95663.69;;;22.81;52.32
56038;BME280;41907;47.848;9.000;2022-09-12T13:59:14;95653.56;;;22.96;53.53
56038;BME280;41907;47.848;9.000;2022-09-12T14:01:41;95641.94;;;23.10;54.47
56038;BME280;41907;47.848;9.000;2022-09-12T14:04:20;95645.81;;;23.05;53.56
56038;BME280;41907;47.848;9.000;2022-09-12T14:07:19;95639.94;;;23.24;53.27
56038;BME280;41907;47.848;9.000;2022-09-12T14:09:55;95641.88;;;23.45;54.15
56038;BME280;41907;47.848;9.000;2022-09-12T14:12:39;95640.69;;;23.60;57.54
56038;BME280;41907;47.848;9.000;2022-09-12T14:15:16;95640.31;;;23.41;52.90
56038;BME280;41907;47.848;9.000;2022-09-12T14:17:48;95629.84;;;23.35;53.60
56038;BME280;41907;47.848;9.000;2022-09-12T14:20:19;95632.97;;;23.27;53.64
56038;BME280;41907;47.848;9.000;2022-09-12T14:22:48;95636.88;;;23.19;52.46
56038;BME280;41907;47.848;9.000;2022-09-12T14:25:19;95621.31;;;23.30;52.07
56038;BME280;41907;47.848;9.000;2022-09-12T14:27:49;95629.84;;;23.39;52.61
56038;BME280;41907;47.848;9.000;2022-09-12T14:35:37;95618.53;;;23.55;53.30
56038;BME280;41907;47.848;9.000;2022-09-12T14:38:08;95624.38;;;23.50;51.96
56038;BME280;41907;47.848;9.000;2022-09-12T14:40:46;95620.53;;;23.26;53.50
56038;BME280;41907;47.848;9.000;2022-09-12T14:43:17;95625.19;;;23.22;51.75
56038;BME280;41907;47.848;9.000;2022-09-12T14:45:43;95619.00;;;23.21;52.30
56038;BME280;41907;47.848;9.000;2022-09-12T14:48:16;95617.06;;;23.00;51.00
56038;BME280;41907;47.848;9.000;2022-09-12T14:50:48;95613.91;;;23.13;51.23
56038;BME280;41907;47.848;9.000;2022-09-12T14:56:11;95610.44;;;23.09;51.35
56038;BME280;41907;47.848;9.000;2022-09-12T14:58:38;95617.84;;;23.01;52.25
56038;BME280;41907;47.848;9.000;2022-09-12T15:03:35;95606.97;;;22.90;52.23
56038;BME280;41907;47.848;9.000;2022-09-12T15:06:04;95606.97;;;22.87;51.15
56038;BME280;41907;47.848;9.000;2022-09-12T15:08:32;95613.94;;;22.77;53.52
56038;BME280;41907;47.848;9.000;2022-09-12T15:10:58;95611.25;;;22.91;51.70
56038;BME280;41907;47.848;9.000;2022-09-12T15:13:25;95604.63;;;22.96;52.26
56038;BME280;41907;47.848;9.000;2022-09-12T15:15:58;95609.69;;;23.01;53.08
56038;BME280;41907;47.848;9.000;2022-09-12T15:18:27;95608.88;;;23.04;52.54
56038;BME280;41907;47.848;9.000;2022-09-12T15:20:56;95606.19;;;22.97;53.57